sensor_id;sensor_type;location;lat;lon;timestamp;P1;durP1;ratioP1;P2;durP2;ratioP2
3257;SDS011;1641;51.306;12.384;2023-02-07T00:01:28;53.20;;;26.80;;
3257;SDS011;1641;51.306;12.384;2023-02-07T00:03:57;54.10;;;25.65;;
3257;SDS011;1641;51.306;12.384;2023-02-07T00:06:24;50.15;;;24.33;;
3257;SDS011;1641;51.306;12.384;2023-02-07T00:08:54;50.80;;;24.27;;
3257;SDS011;1641;51.306;12.384;2023-02-07T00:11:22;58.78;;;23.85;;
3257;SDS011;1641;51.306;12.384;2023-02-07T00:13:49;50.33;;;23.20;;
3257;SDS011;1641;51.306;12.384;2023-02-07T00:16:17;52.30;;;25.80;;
3257;SDS011;1641;51.306;12.384;2023-02-07T00:18:43;53.67;;;26.13;;
3257;SDS011;1641;51.306;12.384;2023-02-07T00:21:13;51.63;;;25.95;;
3257;SDS011;1641;51.306;12.384;2023-02-07T00:23:41;47.75;;;26.73;;
3257;SDS011;1641;51.306;12.384;2023-02-07T00:26:07;51.85;;;26.25;;
3257;SDS011;1641;51.306;12.384;2023-02-07T00:28:34;49.33;;;26.48;;
3257;SDS011;1641;51.306;12.384;2023-02-07T00:31:04;48.40;;;25.33;;
3257;SDS011;1641;51.306;12.384;2023-02-07T00:33:37;53.15;;;25.48;;
3257;SDS011;1641;51.306;12.384;2023-02-07T00:36:04;56.28;;;25.55;;
3257;SDS011;1641;51.306;12.384;2023-02-07T00:38:32;52.08;;;26.33;;
3257;SDS011;1641;51.306;12.384;2023-02-07T00:40:57;45.97;;;24.38;;
3257;SDS011;1641;51.306;12.384;2023-02-07T00:43:23;56.72;;;25.75;;
3257;SDS011;1641;51.306;12.384;2023-02-07T00:45:48;53.70;;;25.75;;
3257;SDS011;1641;51.306;12.384;2023-02-07T00:48:13;47.60;;;24.80;;
3257;SDS011;1641;51.306;12.384;2023-02-07T00:50:39;48.60;;;24.08;;
3257;SDS011;1641;51.306;12.384;2023-02-07T00:53:19;45.70;;;24.65;;
3257;SDS011;1641;51.306;12.384;2023-02-07T00:55:45;52.00;;;24.90;;
3257;SDS011;1641;51.306;12.384;2023-02-07T00:58:10;51.35;;;24.60;;
3257;SDS011;1641;51.306;12.384;2023-02-07T01:00:35;57.17;;;25.63;;
3257;SDS011;1641;51.306;12.384;2023-02-07T01:03:01;49.60;;;25.75;;
3257;SDS011;1641;51.306;12.384;2023-02-07T01:05:26;49.90;;;26.15;;
3257;SDS011;1641;51.306;12.384;2023-02-07T01:07:51;50.85;;;25.38;;
3257;SDS011;1641;51.306;12.384;2023-02-07T01:10:17;52.42;;;26.77;;
3257;SDS011;1641;51.306;12.384;2023-02-07T01:12:45;49.97;;;23.63;;
3257;SDS011;1641;51.306;12.384;2023-02-07T01:15:13;52.35;;;24.60;;
3257;SDS011;1641;51.306;12.384;2023-02-07T01:17:41;58.40;;;27.58;;
3257;SDS011;1641;51.306;12.384;2023-02-07T01:20:07;55.83;;;25.90;;
3257;SDS011;1641;51.306;12.384;2023-02-07T01:22:33;52.92;;;27.10;;
3257;SDS011;1641;51.306;12.384;2023-02-07T01:24:58;58.47;;;27.40;;
3257;SDS011;1641;51.306;12.384;2023-02-07T01:27:24;52.72;;;26.00;;
3257;SDS011;1641;51.306;12.384;2023-02-07T01:29:58;53.08;;;26.38;;
3257;SDS011;1641;51.306;12.384;2023-02-07T01:32:27;57.55;;;27.08;;
3257;SDS011;1641;51.306;12.384;2023-02-07T01:34:52;53.92;;;25.45;;
3257;SDS011;1641;51.306;12.384;2023-02-07T01:37:21;48.40;;;25.35;;
3257;SDS011;1641;51.306;12.384;2023-02-07T01:39:46;51.63;;;24.73;;
3257;SDS011;1641;51.306;12.384;2023-02-07T01:42:12;49.88;;;24.10;;
3257;SDS011;1641;51.306;12.384;2023-02-07T01:47:15;47.10;;;24.65;;
3257;SDS011;1641;51.306;12.384;2023-02-07T01:49:42;50.88;;;26.38;;
3257;SDS011;1641;51.306;12.384;2023-02-07T01:52:10;50.05;;;23.92;;
3257;SDS011;1641;51.306;12.384;2023-02-07T01:54:40;52.75;;;24.83;;
3257;SDS011;1641;51.306;12.384;2023-02-07T01:57:13;48.92;;;24.92;;
3257;SDS011;1641;51.306;12.384;2023-02-07T01:59:56;49.70;;;24.73;;
3257;SDS011;1641;51.306;12.384;2023-02-07T02:02:23;41.38;;;23.17;;
3257;SDS011;1641;51.306;12.384;2023-02-07T02:04:54;54.28;;;24.88;;
3257;SDS011;1641;51.306;12.384;2023-02-07T02:07:23;53.38;;;24.33;;
3257;SDS011;1641;51.306;12.384;2023-02-07T02:09:52;50.80;;;25.10;;
3257;SDS011;1641;51.306;12.384;2023-02-07T02:12:30;43.92;;;23.65;;
3257;SDS011;1641;51.306;12.384;2023-02-07T02:15:08;49.53;;;23.80;;
3257;SDS011;1641;51.306;12.384;2023-02-07T02:20:50;51.65;;;23.65;;
3257;SDS011;1641;51.306;12.384;2023-02-07T02:32:13;51.17;;;25.65;;
3257;SDS011;1641;51.306;12.384;2023-02-07T02:35:07;45.38;;;23.88;;
3257;SDS011;1641;51.306;12.384;2023-02-07T02:37:46;50.72;;;24.63;;
3257;SDS011;1641;51.306;12.384;2023-02-07T02:46:14;50.17;;;25.08;;
3257;SDS011;1641;51.306;12.384;2023-02-07T02:48:44;53.50;;;25.67;;
3257;SDS011;1641;51.306;12.384;2023-02-07T02:51:09;48.42;;;25.67;;
3257;SDS011;1641;51.306;12.384;2023-02-07T02:53:35;53.25;;;26.75;;
3257;SDS011;1641;51.306;12.384;2023-02-07T02:58:57;52.88;;;25.40;;
3257;SDS011;1641;51.306;12.384;2023-02-07T03:01:45;49.17;;;24.60;;
3257;SDS011;1641;51.306;12.384;2023-02-07T03:09:53;57.58;;;26.83;;
3257;SDS011;1641;51.306;12.384;2023-02-07T03:17:33;53.88;;;26.70;;
3257;SDS011;1641;51.306;12.384;2023-02-07T03:20:13;233.98;;;37.75;;
3257;SDS011;1641;51.306;12.384;2023-02-07T03:22:44;209.07;;;36.05;;
3257;SDS011;1641;51.306;12.384;2023-02-07T03:25:11;255.30;;;35.08;;
3257;SDS011;1641;51.306;12.384;2023-02-07T03:27:39;383.30;;;45.85;;
3257;SDS011;1641;51.306;12.384;2023-02-07T03:30:06;207.90;;;36.40;;
3257;SDS011;1641;51.306;12.384;2023-02-07T03:32:37;255.88;;;39.80;;
3257;SDS011;1641;51.306;12.384;2023-02-07T03:35:19;306.60;;;43.67;;
3257;SDS011;1641;51.306;12.384;2023-02-07T03:37:52;244.48;;;37.90;;
3257;SDS011;1641;51.306;12.384;2023-02-07T03:40:20;298.05;;;39.78;;
3257;SDS011;1641;51.306;12.384;2023-02-07T03:42:51;228.90;;;38.80;;
3257;SDS011;1641;51.306;12.384;2023-02-07T03:45:20;224.10;;;39.92;;
3257;SDS011;1641;51.306;12.384;2023-02-07T03:47:46;260.73;;;39.45;;
3257;SDS011;1641;51.306;12.384;2023-02-07T03:50:12;81.70;;;31.67;;
3257;SDS011;1641;51.306;12.384;2023-02-07T03:52:39;167.27;;;37.05;;
3257;SDS011;1641;51.306;12.384;2023-02-07T03:55:04;129.80;;;34.17;;
3257;SDS011;1641;51.306;12.384;2023-02-07T03:57:31;196.88;;;39.63;;
3257;SDS011;1641;51.306;12.384;2023-02-07T03:59:57;137.75;;;32.63;;
3257;SDS011;1641;51.306;12.384;2023-02-07T04:02:22;72.22;;;31.65;;
3257;SDS011;1641;51.306;12.384;2023-02-07T04:04:47;88.68;;;30.63;;
3257;SDS011;1641;51.306;12.384;2023-02-07T04:07:12;61.92;;;29.20;;
3257;SDS011;1641;51.306;12.384;2023-02-07T04:09:38;74.70;;;30.73;;
3257;SDS011;1641;51.306;12.384;2023-02-07T04:12:03;79.53;;;31.42;;
3257;SDS011;1641;51.306;12.384;2023-02-07T04:14:29;63.95;;;28.85;;
3257;SDS011;1641;51.306;12.384;2023-02-07T04:16:54;85.05;;;30.45;;
3257;SDS011;1641;51.306;12.384;2023-02-07T04:19:19;74.40;;;29.20;;
3257;SDS011;1641;51.306;12.384;2023-02-07T04:21:45;81.72;;;32.58;;
3257;SDS011;1641;51.306;12.384;2023-02-07T04:24:10;127.68;;;32.80;;
3257;SDS011;1641;51.306;12.384;2023-02-07T04:26:36;109.38;;;33.85;;
3257;SDS011;1641;51.306;12.384;2023-02-07T04:29:01;110.32;;;30.67;;
3257;SDS011;1641;51.306;12.384;2023-02-07T04:31:26;93.00;;;31.27;;
3257;SDS011;1641;51.306;12.384;2023-02-07T04:33:51;74.40;;;28.65;;
3257;SDS011;1641;51.306;12.384;2023-02-07T04:36:17;78.25;;;28.55;;
3257;SDS011;1641;51.306;12.384;2023-02-07T04:38:42;108.07;;;31.05;;
3257;SDS011;1641;51.306;12.384;2023-02-07T04:41:07;77.10;;;30.25;;
3257;SDS011;1641;51.306;12.384;2023-02-07T04:43:34;82.47;;;30.35;;
3257;SDS011;1641;51.306;12.384;2023-02-07T04:46:00;124.50;;;31.73;;
3257;SDS011;1641;51.306;12.384;2023-02-07T04:48:27;95.97;;;29.10;;
3257;SDS011;1641;51.306;12.384;2023-02-07T04:50:52;75.45;;;27.83;;
3257;SDS011;1641;51.306;12.384;2023-02-07T04:53:17;77.72;;;30.52;;
3257;SDS011;1641;51.306;12.384;2023-02-07T04:55:46;82.03;;;30.00;;
3257;SDS011;1641;51.306;12.384;2023-02-07T04:58:12;90.63;;;31.35;;
3257;SDS011;1641;51.306;12.384;2023-02-07T05:00:37;73.07;;;30.52;;
3257;SDS011;1641;51.306;12.384;2023-02-07T05:03:02;106.30;;;32.83;;
3257;SDS011;1641;51.306;12.384;2023-02-07T05:05:27;83.88;;;31.17;;
3257;SDS011;1641;51.306;12.384;2023-02-07T05:07:53;76.78;;;30.27;;
3257;SDS011;1641;51.306;12.384;2023-02-07T05:10:18;76.47;;;31.77;;
3257;SDS011;1641;51.306;12.384;2023-02-07T05:12:43;86.65;;;30.38;;
3257;SDS011;1641;51.306;12.384;2023-02-07T05:15:09;71.60;;;31.58;;
3257;SDS011;1641;51.306;12.384;2023-02-07T05:17:34;74.70;;;29.73;;
3257;SDS011;1641;51.306;12.384;2023-02-07T05:19:59;91.07;;;34.08;;
3257;SDS011;1641;51.306;12.384;2023-02-07T05:22:25;79.53;;;31.40;;
3257;SDS011;1641;51.306;12.384;2023-02-07T05:24:51;83.53;;;30.85;;
3257;SDS011;1641;51.306;12.384;2023-02-07T05:27:16;83.55;;;30.08;;
3257;SDS011;1641;51.306;12.384;2023-02-07T05:29:41;93.45;;;33.50;;
3257;SDS011;1641;51.306;12.384;2023-02-07T05:32:08;99.95;;;35.08;;
3257;SDS011;1641;51.306;12.384;2023-02-07T05:34:55;77.47;;;33.60;;
3257;SDS011;1641;51.306;12.384;2023-02-07T05:37:20;88.90;;;32.13;;
3257;SDS011;1641;51.306;12.384;2023-02-07T05:39:45;98.85;;;32.17;;
3257;SDS011;1641;51.306;12.384;2023-02-07T05:42:10;81.18;;;30.00;;
3257;SDS011;1641;51.306;12.384;2023-02-07T05:44:36;85.45;;;33.10;;
3257;SDS011;1641;51.306;12.384;2023-02-07T05:47:01;87.90;;;32.45;;
3257;SDS011;1641;51.306;12.384;2023-02-07T05:49:26;86.18;;;31.48;;
3257;SDS011;1641;51.306;12.384;2023-02-07T05:51:51;93.82;;;33.72;;
3257;SDS011;1641;51.306;12.384;2023-02-07T05:54:17;100.93;;;33.97;;
3257;SDS011;1641;51.306;12.384;2023-02-07T05:56:42;90.85;;;31.52;;
3257;SDS011;1641;51.306;12.384;2023-02-07T05:59:07;85.30;;;31.80;;
3257;SDS011;1641;51.306;12.384;2023-02-07T06:01:32;136.45;;;34.42;;
3257;SDS011;1641;51.306;12.384;2023-02-07T06:03:58;88.47;;;32.85;;
3257;SDS011;1641;51.306;12.384;2023-02-07T06:06:23;93.60;;;30.30;;
3257;SDS011;1641;51.306;12.384;2023-02-07T06:08:48;96.50;;;32.17;;
3257;SDS011;1641;51.306;12.384;2023-02-07T06:11:13;117.10;;;34.45;;
3257;SDS011;1641;51.306;12.384;2023-02-07T06:13:38;95.35;;;31.52;;
3257;SDS011;1641;51.306;12.384;2023-02-07T06:16:04;91.45;;;29.52;;
3257;SDS011;1641;51.306;12.384;2023-02-07T06:18:29;96.95;;;29.80;;
3257;SDS011;1641;51.306;12.384;2023-02-07T06:20:54;74.05;;;27.15;;
3257;SDS011;1641;51.306;12.384;2023-02-07T06:23:20;77.03;;;26.20;;
3257;SDS011;1641;51.306;12.384;2023-02-07T06:25:46;27.45;;;12.85;;
3257;SDS011;1641;51.306;12.384;2023-02-07T06:28:12;107.93;;;27.23;;
3257;SDS011;1641;51.306;12.384;2023-02-07T06:30:37;109.60;;;31.65;;
3257;SDS011;1641;51.306;12.384;2023-02-07T06:33:03;107.10;;;29.90;;
3257;SDS011;1641;51.306;12.384;2023-02-07T06:35:28;86.25;;;26.67;;
3257;SDS011;1641;51.306;12.384;2023-02-07T06:37:53;103.03;;;30.73;;
3257;SDS011;1641;51.306;12.384;2023-02-07T06:40:18;122.10;;;36.33;;
3257;SDS011;1641;51.306;12.384;2023-02-07T06:42:44;112.68;;;35.08;;
3257;SDS011;1641;51.306;12.384;2023-02-07T06:45:09;153.18;;;45.88;;
3257;SDS011;1641;51.306;12.384;2023-02-07T06:47:34;98.38;;;30.50;;
3257;SDS011;1641;51.306;12.384;2023-02-07T06:49:59;99.53;;;33.30;;
3257;SDS011;1641;51.306;12.384;2023-02-07T06:52:25;131.95;;;37.00;;
3257;SDS011;1641;51.306;12.384;2023-02-07T06:54:50;111.18;;;30.70;;
3257;SDS011;1641;51.306;12.384;2023-02-07T06:57:15;99.18;;;29.85;;
3257;SDS011;1641;51.306;12.384;2023-02-07T06:59:40;80.47;;;29.45;;
3257;SDS011;1641;51.306;12.384;2023-02-07T07:02:06;91.28;;;29.55;;
3257;SDS011;1641;51.306;12.384;2023-02-07T07:04:31;131.30;;;34.95;;
3257;SDS011;1641;51.306;12.384;2023-02-07T07:06:56;138.38;;;32.60;;
3257;SDS011;1641;51.306;12.384;2023-02-07T07:09:24;128.50;;;37.38;;
3257;SDS011;1641;51.306;12.384;2023-02-07T07:11:50;110.32;;;31.33;;
3257;SDS011;1641;51.306;12.384;2023-02-07T07:14:15;91.45;;;29.98;;
3257;SDS011;1641;51.306;12.384;2023-02-07T07:16:43;107.57;;;36.70;;
3257;SDS011;1641;51.306;12.384;2023-02-07T07:19:08;115.43;;;31.38;;
3257;SDS011;1641;51.306;12.384;2023-02-07T07:21:40;151.13;;;31.42;;
3257;SDS011;1641;51.306;12.384;2023-02-07T07:24:05;116.55;;;32.15;;
3257;SDS011;1641;51.306;12.384;2023-02-07T07:26:30;91.28;;;29.20;;
3257;SDS011;1641;51.306;12.384;2023-02-07T07:29:02;118.00;;;32.10;;
3257;SDS011;1641;51.306;12.384;2023-02-07T07:31:27;85.40;;;29.75;;
3257;SDS011;1641;51.306;12.384;2023-02-07T07:33:52;95.05;;;31.67;;
3257;SDS011;1641;51.306;12.384;2023-02-07T07:36:18;93.28;;;34.95;;
3257;SDS011;1641;51.306;12.384;2023-02-07T07:38:44;96.00;;;31.67;;
3257;SDS011;1641;51.306;12.384;2023-02-07T07:41:12;90.55;;;33.35;;
3257;SDS011;1641;51.306;12.384;2023-02-07T07:43:44;95.22;;;31.38;;
3257;SDS011;1641;51.306;12.384;2023-02-07T07:46:09;96.88;;;32.88;;
3257;SDS011;1641;51.306;12.384;2023-02-07T07:48:34;93.55;;;33.08;;
3257;SDS011;1641;51.306;12.384;2023-02-07T07:51:00;81.05;;;28.60;;
3257;SDS011;1641;51.306;12.384;2023-02-07T07:53:25;99.30;;;31.58;;
3257;SDS011;1641;51.306;12.384;2023-02-07T07:55:51;95.82;;;31.02;;
3257;SDS011;1641;51.306;12.384;2023-02-07T07:58:21;92.88;;;31.27;;
3257;SDS011;1641;51.306;12.384;2023-02-07T08:00:47;91.47;;;29.38;;
3257;SDS011;1641;51.306;12.384;2023-02-07T08:03:16;103.82;;;29.48;;
3257;SDS011;1641;51.306;12.384;2023-02-07T08:05:43;89.70;;;30.13;;
3257;SDS011;1641;51.306;12.384;2023-02-07T08:08:11;117.63;;;33.40;;
3257;SDS011;1641;51.306;12.384;2023-02-07T08:10:37;104.28;;;31.27;;
3257;SDS011;1641;51.306;12.384;2023-02-07T08:13:04;80.65;;;28.95;;
3257;SDS011;1641;51.306;12.384;2023-02-07T08:15:30;88.65;;;31.33;;
3257;SDS011;1641;51.306;12.384;2023-02-07T08:17:58;85.43;;;31.60;;
3257;SDS011;1641;51.306;12.384;2023-02-07T08:20:24;103.88;;;34.30;;
3257;SDS011;1641;51.306;12.384;2023-02-07T08:22:49;102.03;;;33.78;;
3257;SDS011;1641;51.306;12.384;2023-02-07T08:25:15;97.13;;;31.85;;
3257;SDS011;1641;51.306;12.384;2023-02-07T08:27:40;113.90;;;32.08;;
3257;SDS011;1641;51.306;12.384;2023-02-07T08:30:09;107.03;;;34.80;;
3257;SDS011;1641;51.306;12.384;2023-02-07T08:32:37;102.45;;;33.00;;
3257;SDS011;1641;51.306;12.384;2023-02-07T08:35:07;99.65;;;34.72;;
3257;SDS011;1641;51.306;12.384;2023-02-07T08:37:33;114.28;;;37.13;;
3257;SDS011;1641;51.306;12.384;2023-02-07T08:39:58;102.32;;;32.83;;
3257;SDS011;1641;51.306;12.384;2023-02-07T08:42:24;100.20;;;31.98;;
3257;SDS011;1641;51.306;12.384;2023-02-07T08:44:49;88.40;;;30.85;;
3257;SDS011;1641;51.306;12.384;2023-02-07T08:47:15;96.05;;;33.67;;
3257;SDS011;1641;51.306;12.384;2023-02-07T08:49:41;96.95;;;33.78;;
3257;SDS011;1641;51.306;12.384;2023-02-07T08:52:07;151.07;;;39.38;;
3257;SDS011;1641;51.306;12.384;2023-02-07T08:54:39;103.35;;;32.88;;
3257;SDS011;1641;51.306;12.384;2023-02-07T08:57:04;104.13;;;34.47;;
3257;SDS011;1641;51.306;12.384;2023-02-07T08:59:33;95.25;;;33.65;;
3257;SDS011;1641;51.306;12.384;2023-02-07T09:01:58;92.60;;;33.40;;
3257;SDS011;1641;51.306;12.384;2023-02-07T09:04:26;91.30;;;28.63;;
3257;SDS011;1641;51.306;12.384;2023-02-07T09:06:51;106.00;;;33.38;;
3257;SDS011;1641;51.306;12.384;2023-02-07T09:09:17;89.68;;;34.30;;
3257;SDS011;1641;51.306;12.384;2023-02-07T09:11:42;98.60;;;33.42;;
3257;SDS011;1641;51.306;12.384;2023-02-07T09:14:08;104.13;;;33.30;;
3257;SDS011;1641;51.306;12.384;2023-02-07T09:16:33;103.95;;;33.58;;
3257;SDS011;1641;51.306;12.384;2023-02-07T09:18:58;100.40;;;32.90;;
3257;SDS011;1641;51.306;12.384;2023-02-07T09:21:23;82.70;;;28.98;;
3257;SDS011;1641;51.306;12.384;2023-02-07T09:23:52;94.32;;;32.97;;
3257;SDS011;1641;51.306;12.384;2023-02-07T09:26:20;82.93;;;27.63;;
3257;SDS011;1641;51.306;12.384;2023-02-07T09:28:46;58.63;;;20.25;;
3257;SDS011;1641;51.306;12.384;2023-02-07T09:31:15;101.38;;;31.35;;
3257;SDS011;1641;51.306;12.384;2023-02-07T09:33:40;87.55;;;27.92;;
3257;SDS011;1641;51.306;12.384;2023-02-07T09:36:14;88.03;;;30.55;;
3257;SDS011;1641;51.306;12.384;2023-02-07T09:38:45;96.78;;;32.42;;
3257;SDS011;1641;51.306;12.384;2023-02-07T09:41:13;98.82;;;31.95;;
3257;SDS011;1641;51.306;12.384;2023-02-07T09:43:57;98.13;;;32.00;;
3257;SDS011;1641;51.306;12.384;2023-02-07T09:46:39;94.20;;;32.05;;
3257;SDS011;1641;51.306;12.384;2023-02-07T09:49:13;85.93;;;30.35;;
3257;SDS011;1641;51.306;12.384;2023-02-07T09:51:47;80.10;;;28.02;;
3257;SDS011;1641;51.306;12.384;2023-02-07T09:54:20;87.18;;;29.65;;
3257;SDS011;1641;51.306;12.384;2023-02-07T09:56:50;95.38;;;31.95;;
3257;SDS011;1641;51.306;12.384;2023-02-07T09:59:27;92.95;;;31.90;;
3257;SDS011;1641;51.306;12.384;2023-02-07T10:02:21;108.95;;;36.97;;
3257;SDS011;1641;51.306;12.384;2023-02-07T10:04:56;84.05;;;31.63;;
3257;SDS011;1641;51.306;12.384;2023-02-07T10:07:25;94.72;;;32.95;;
3257;SDS011;1641;51.306;12.384;2023-02-07T10:09:50;94.72;;;31.33;;
3257;SDS011;1641;51.306;12.384;2023-02-07T10:12:32;82.22;;;31.77;;
3257;SDS011;1641;51.306;12.384;2023-02-07T10:15:29;77.47;;;26.85;;
3257;SDS011;1641;51.306;12.384;2023-02-07T10:18:28;66.38;;;25.13;;
3257;SDS011;1641;51.306;12.384;2023-02-07T10:27:29;73.20;;;28.55;;
3257;SDS011;1641;51.306;12.384;2023-02-07T10:32:30;83.67;;;30.87;;
3257;SDS011;1641;51.306;12.384;2023-02-07T10:35:33;89.88;;;31.70;;
3257;SDS011;1641;51.306;12.384;2023-02-07T10:37:56;98.93;;;35.78;;
3257;SDS011;1641;51.306;12.384;2023-02-07T10:40:33;85.30;;;32.78;;
3257;SDS011;1641;51.306;12.384;2023-02-07T10:43:25;74.78;;;30.25;;
3257;SDS011;1641;51.306;12.384;2023-02-07T10:45:58;77.93;;;28.48;;
3257;SDS011;1641;51.306;12.384;2023-02-07T10:48:25;84.68;;;31.65;;
3257;SDS011;1641;51.306;12.384;2023-02-07T10:50:51;91.22;;;32.88;;
3257;SDS011;1641;51.306;12.384;2023-02-07T10:56:15;79.85;;;31.35;;
3257;SDS011;1641;51.306;12.384;2023-02-07T10:58:42;88.85;;;38.00;;
3257;SDS011;1641;51.306;12.384;2023-02-07T11:01:15;77.50;;;30.98;;
3257;SDS011;1641;51.306;12.384;2023-02-07T11:03:43;88.10;;;32.75;;
3257;SDS011;1641;51.306;12.384;2023-02-07T11:06:08;78.32;;;29.58;;
3257;SDS011;1641;51.306;12.384;2023-02-07T11:08:35;93.38;;;32.63;;
3257;SDS011;1641;51.306;12.384;2023-02-07T11:13:51;90.75;;;32.90;;
3257;SDS011;1641;51.306;12.384;2023-02-07T11:16:19;88.45;;;34.08;;
3257;SDS011;1641;51.306;12.384;2023-02-07T11:18:56;82.03;;;30.45;;
3257;SDS011;1641;51.306;12.384;2023-02-07T11:24:07;75.70;;;30.30;;
3257;SDS011;1641;51.306;12.384;2023-02-07T11:26:51;77.38;;;31.80;;
3257;SDS011;1641;51.306;12.384;2023-02-07T11:29:28;82.18;;;32.08;;
3257;SDS011;1641;51.306;12.384;2023-02-07T11:31:55;71.47;;;29.13;;
3257;SDS011;1641;51.306;12.384;2023-02-07T11:34:26;66.57;;;29.33;;
3257;SDS011;1641;51.306;12.384;2023-02-07T11:36:52;64.40;;;27.17;;
3257;SDS011;1641;51.306;12.384;2023-02-07T11:39:19;76.47;;;29.50;;
3257;SDS011;1641;51.306;12.384;2023-02-07T11:41:53;69.85;;;28.88;;
3257;SDS011;1641;51.306;12.384;2023-02-07T11:44:23;74.45;;;29.35;;
3257;SDS011;1641;51.306;12.384;2023-02-07T11:46:50;71.78;;;29.45;;
3257;SDS011;1641;51.306;12.384;2023-02-07T11:51:49;71.55;;;29.48;;
3257;SDS011;1641;51.306;12.384;2023-02-07T11:54:16;75.32;;;31.23;;
3257;SDS011;1641;51.306;12.384;2023-02-07T11:56:41;78.68;;;32.15;;
3257;SDS011;1641;51.306;12.384;2023-02-07T11:59:16;76.00;;;32.28;;
3257;SDS011;1641;51.306;12.384;2023-02-07T12:01:47;70.22;;;29.70;;
3257;SDS011;1641;51.306;12.384;2023-02-07T12:04:15;74.18;;;31.10;;
3257;SDS011;1641;51.306;12.384;2023-02-07T12:06:54;80.90;;;32.72;;
3257;SDS011;1641;51.306;12.384;2023-02-07T12:09:30;67.75;;;30.17;;
3257;SDS011;1641;51.306;12.384;2023-02-07T12:12:15;73.60;;;29.52;;
3257;SDS011;1641;51.306;12.384;2023-02-07T12:17:40;70.13;;;28.08;;
3257;SDS011;1641;51.306;12.384;2023-02-07T12:23:33;74.43;;;31.35;;
3257;SDS011;1641;51.306;12.384;2023-02-07T12:26:12;71.25;;;31.83;;
3257;SDS011;1641;51.306;12.384;2023-02-07T12:29:02;73.40;;;29.73;;
3257;SDS011;1641;51.306;12.384;2023-02-07T12:34:28;74.95;;;32.83;;
3257;SDS011;1641;51.306;12.384;2023-02-07T12:36:59;71.78;;;30.88;;
3257;SDS011;1641;51.306;12.384;2023-02-07T12:39:41;79.25;;;33.65;;
3257;SDS011;1641;51.306;12.384;2023-02-07T12:42:20;70.78;;;29.45;;
3257;SDS011;1641;51.306;12.384;2023-02-07T12:44:54;84.13;;;33.50;;
3257;SDS011;1641;51.306;12.384;2023-02-07T12:50:35;76.20;;;31.98;;
3257;SDS011;1641;51.306;12.384;2023-02-07T12:53:29;82.95;;;32.53;;
3257;SDS011;1641;51.306;12.384;2023-02-07T12:58:58;76.35;;;30.98;;
3257;SDS011;1641;51.306;12.384;2023-02-07T13:01:43;84.15;;;33.20;;
3257;SDS011;1641;51.306;12.384;2023-02-07T13:04:16;80.90;;;34.38;;
3257;SDS011;1641;51.306;12.384;2023-02-07T13:10:02;75.85;;;31.23;;
3257;SDS011;1641;51.306;12.384;2023-02-07T13:18:56;87.45;;;37.10;;
3257;SDS011;1641;51.306;12.384;2023-02-07T13:23:46;82.43;;;32.92;;
3257;SDS011;1641;51.306;12.384;2023-02-07T13:26:13;79.35;;;32.40;;
3257;SDS011;1641;51.306;12.384;2023-02-07T13:28:44;80.25;;;33.28;;
3257;SDS011;1641;51.306;12.384;2023-02-07T13:31:12;76.60;;;34.42;;
3257;SDS011;1641;51.306;12.384;2023-02-07T13:33:42;65.28;;;27.05;;
3257;SDS011;1641;51.306;12.384;2023-02-07T13:39:40;71.00;;;30.40;;
3257;SDS011;1641;51.306;12.384;2023-02-07T13:44:32;66.53;;;28.42;;
3257;SDS011;1641;51.306;12.384;2023-02-07T13:47:10;68.30;;;29.23;;
3257;SDS011;1641;51.306;12.384;2023-02-07T13:49:46;63.80;;;29.55;;
3257;SDS011;1641;51.306;12.384;2023-02-07T13:54:54;68.10;;;29.50;;
3257;SDS011;1641;51.306;12.384;2023-02-07T13:57:39;67.90;;;30.83;;
3257;SDS011;1641;51.306;12.384;2023-02-07T14:00:26;66.78;;;28.13;;
3257;SDS011;1641;51.306;12.384;2023-02-07T14:03:01;72.07;;;28.92;;
3257;SDS011;1641;51.306;12.384;2023-02-07T14:05:32;73.50;;;31.23;;
3257;SDS011;1641;51.306;12.384;2023-02-07T14:08:03;72.00;;;30.55;;
3257;SDS011;1641;51.306;12.384;2023-02-07T14:10:47;84.97;;;34.08;;
3257;SDS011;1641;51.306;12.384;2023-02-07T14:31:50;75.55;;;30.73;;
3257;SDS011;1641;51.306;12.384;2023-02-07T14:34:22;74.15;;;31.95;;
3257;SDS011;1641;51.306;12.384;2023-02-07T14:36:52;74.00;;;30.83;;
3257;SDS011;1641;51.306;12.384;2023-02-07T14:41:45;75.82;;;32.03;;
3257;SDS011;1641;51.306;12.384;2023-02-07T14:44:54;69.00;;;30.75;;
3257;SDS011;1641;51.306;12.384;2023-02-07T14:47:02;69.93;;;29.77;;
3257;SDS011;1641;51.306;12.384;2023-02-07T14:49:37;84.60;;;34.63;;
3257;SDS011;1641;51.306;12.384;2023-02-07T14:52:11;81.90;;;33.85;;
3257;SDS011;1641;51.306;12.384;2023-02-07T14:54:41;87.78;;;34.83;;
3257;SDS011;1641;51.306;12.384;2023-02-07T14:57:32;88.57;;;35.00;;
3257;SDS011;1641;51.306;12.384;2023-02-07T15:07:48;83.03;;;33.85;;
3257;SDS011;1641;51.306;12.384;2023-02-07T15:10:39;95.47;;;36.10;;
3257;SDS011;1641;51.306;12.384;2023-02-07T15:13:25;80.78;;;33.45;;
3257;SDS011;1641;51.306;12.384;2023-02-07T15:18:51;80.07;;;30.38;;
3257;SDS011;1641;51.306;12.384;2023-02-07T15:21:25;82.05;;;34.33;;
3257;SDS011;1641;51.306;12.384;2023-02-07T15:24:02;82.30;;;33.53;;
3257;SDS011;1641;51.306;12.384;2023-02-07T15:26:34;82.55;;;32.63;;
3257;SDS011;1641;51.306;12.384;2023-02-07T15:29:02;97.07;;;36.92;;
3257;SDS011;1641;51.306;12.384;2023-02-07T15:31:35;79.90;;;34.28;;
3257;SDS011;1641;51.306;12.384;2023-02-07T15:34:03;83.80;;;35.53;;
3257;SDS011;1641;51.306;12.384;2023-02-07T15:36:34;77.80;;;32.08;;
3257;SDS011;1641;51.306;12.384;2023-02-07T15:39:06;79.25;;;34.28;;
3257;SDS011;1641;51.306;12.384;2023-02-07T15:41:51;93.43;;;36.80;;
3257;SDS011;1641;51.306;12.384;2023-02-07T15:46:57;85.65;;;34.45;;
3257;SDS011;1641;51.306;12.384;2023-02-07T15:49:25;82.95;;;35.53;;
3257;SDS011;1641;51.306;12.384;2023-02-07T15:52:02;87.13;;;36.95;;
3257;SDS011;1641;51.306;12.384;2023-02-07T15:54:44;88.00;;;35.25;;
3257;SDS011;1641;51.306;12.384;2023-02-07T15:59:51;81.00;;;34.47;;
3257;SDS011;1641;51.306;12.384;2023-02-07T16:02:32;76.63;;;32.65;;
3257;SDS011;1641;51.306;12.384;2023-02-07T16:05:09;88.38;;;33.75;;
3257;SDS011;1641;51.306;12.384;2023-02-07T16:07:36;86.15;;;34.13;;
3257;SDS011;1641;51.306;12.384;2023-02-07T16:10:14;89.10;;;35.03;;
3257;SDS011;1641;51.306;12.384;2023-02-07T16:12:46;89.13;;;37.80;;
3257;SDS011;1641;51.306;12.384;2023-02-07T16:15:33;98.20;;;36.65;;
3257;SDS011;1641;51.306;12.384;2023-02-07T16:18:00;93.45;;;37.58;;
3257;SDS011;1641;51.306;12.384;2023-02-07T16:20:27;89.50;;;38.13;;
3257;SDS011;1641;51.306;12.384;2023-02-07T16:22:59;92.78;;;37.17;;
3257;SDS011;1641;51.306;12.384;2023-02-07T16:25:27;96.60;;;37.25;;
3257;SDS011;1641;51.306;12.384;2023-02-07T16:27:55;87.00;;;37.33;;
3257;SDS011;1641;51.306;12.384;2023-02-07T16:30:24;95.50;;;38.00;;
3257;SDS011;1641;51.306;12.384;2023-02-07T16:32:53;86.05;;;36.42;;
3257;SDS011;1641;51.306;12.384;2023-02-07T16:35:20;99.15;;;37.78;;
3257;SDS011;1641;51.306;12.384;2023-02-07T16:37:53;93.07;;;38.15;;
3257;SDS011;1641;51.306;12.384;2023-02-07T16:42:46;99.93;;;39.95;;
3257;SDS011;1641;51.306;12.384;2023-02-07T16:45:16;98.88;;;41.13;;
3257;SDS011;1641;51.306;12.384;2023-02-07T16:47:44;99.82;;;41.50;;
3257;SDS011;1641;51.306;12.384;2023-02-07T16:50:13;98.40;;;42.70;;
3257;SDS011;1641;51.306;12.384;2023-02-07T16:52:43;100.30;;;40.20;;
3257;SDS011;1641;51.306;12.384;2023-02-07T16:55:08;93.65;;;39.25;;
3257;SDS011;1641;51.306;12.384;2023-02-07T16:57:35;103.80;;;41.53;;